createdAt,value
2023-04-02T00:00:06.795Z,21.6
2023-04-02T00:01:08.666Z,21.6
2023-04-02T00:02:10.521Z,21.6
2023-04-02T00:03:12.397Z,21.6
2023-04-02T00:04:14.873Z,21.6
2023-04-02T00:05:17.057Z,21.6
2023-04-02T00:06:19.009Z,21.6
2023-04-02T00:07:20.975Z,21.6
2023-04-02T00:08:22.986Z,21.6
2023-04-02T00:09:24.797Z,21.6
2023-04-02T00:10:26.621Z,21.6
2023-04-02T00:11:28.417Z,21.6
2023-04-02T00:12:30.359Z,21.6
2023-04-02T00:13:32.287Z,21.6
2023-04-02T00:14:34.059Z,21.6
2023-04-02T00:15:36.094Z,21.6
2023-04-02T00:16:38.675Z,21.6
2023-04-02T00:17:40.739Z,21.6
2023-04-02T00:18:42.614Z,21.6
2023-04-02T00:19:44.330Z,21.6
2023-04-02T00:20:46.156Z,21.6
2023-04-02T00:21:47.904Z,21.6
2023-04-02T00:22:49.727Z,21.6
2023-04-02T00:23:51.649Z,21.6
2023-04-02T00:24:53.478Z,21.6
2023-04-02T00:25:55.444Z,21.6
2023-04-02T00:26:57.282Z,21.6
2023-04-02T00:27:59.133Z,21.6
2023-04-02T00:29:01.001Z,21.6
2023-04-02T00:30:02.936Z,21.6
2023-04-02T00:31:04.891Z,21.6
2023-04-02T00:32:06.664Z,21.6
2023-04-02T00:33:08.834Z,21.6
2023-04-02T00:34:10.756Z,21.6
2023-04-02T00:35:12.594Z,21.6
2023-04-02T00:36:14.518Z,21.6
2023-04-02T00:37:16.593Z,21.6
2023-04-02T00:38:18.496Z,21.6
2023-04-02T00:39:20.654Z,21.6
2023-04-02T00:40:22.553Z,21.6
2023-04-02T00:41:24.480Z,21.6
2023-04-02T00:42:26.354Z,21.6
2023-04-02T00:43:28.209Z,21.6
2023-04-02T00:44:30.043Z,21.6
2023-04-02T00:45:31.905Z,21.6
2023-04-02T00:46:34.953Z,21.6
2023-04-02T00:47:36.866Z,21.6
2023-04-02T00:48:38.978Z,21.6
2023-04-02T00:49:40.869Z,21.6
2023-04-02T00:50:42.708Z,21.6
2023-04-02T00:51:44.623Z,21.5
2023-04-02T00:52:46.514Z,21.6
2023-04-02T00:53:48.248Z,21.6
2023-04-02T00:54:50.141Z,21.5
2023-04-02T00:55:52.057Z,21.5
2023-04-02T00:56:54.025Z,21.5
2023-04-02T00:57:56.137Z,21.5
2023-04-02T00:58:58.033Z,21.5
2023-04-02T00:59:59.774Z,21.5
2023-04-02T01:01:01.716Z,21.5
2023-04-02T01:02:03.872Z,21.5
2023-04-02T01:03:06.166Z,21.5
2023-04-02T01:04:08.618Z,21.5
2023-04-02T01:05:10.452Z,21.5
2023-04-02T01:06:12.608Z,21.5
2023-04-02T01:07:14.445Z,21.5
2023-04-02T01:08:16.359Z,21.4
2023-04-02T01:09:18.256Z,21.4
2023-04-02T01:10:20.137Z,21.4
2023-04-02T01:11:22.674Z,21.4
2023-04-02T01:12:24.410Z,21.4
2023-04-02T01:13:26.327Z,21.4
2023-04-02T01:14:28.226Z,21.4
2023-04-02T01:15:30.076Z,21.4
2023-04-02T01:16:32.355Z,21.4
2023-04-02T01:17:34.597Z,21.4
2023-04-02T01:18:36.652Z,21.4
2023-04-02T01:19:38.494Z,21.4
2023-04-02T01:20:40.551Z,21.4
2023-04-02T01:21:42.408Z,21.4
2023-04-02T01:22:44.244Z,21.4
2023-04-02T01:23:46.138Z,21.4
2023-04-02T01:24:47.990Z,21.4
2023-04-02T01:25:49.968Z,21.4
2023-04-02T01:26:51.741Z,21.4
2023-04-02T01:27:53.611Z,21.4
2023-04-02T01:28:55.433Z,21.4
2023-04-02T01:29:57.249Z,21.4
2023-04-02T01:30:59.166Z,21.4
2023-04-02T01:32:01.109Z,21.4
2023-04-02T01:33:03.013Z,21.4
2023-04-02T01:34:05.119Z,21.3
2023-04-02T01:35:06.875Z,21.3
2023-04-02T01:36:08.744Z,21.3
2023-04-02T01:37:10.856Z,21.3
2023-04-02T01:38:12.717Z,21.3
2023-04-02T01:39:14.494Z,21.3
2023-04-02T01:40:16.315Z,21.3
2023-04-02T01:41:18.203Z,21.3
2023-04-02T01:42:20.007Z,21.3
2023-04-02T01:43:21.895Z,21.3
2023-04-02T01:44:23.851Z,21.3
2023-04-02T01:45:25.777Z,21.3
2023-04-02T01:46:27.653Z,21.3
2023-04-02T01:47:29.899Z,21.3
2023-04-02T01:48:31.829Z,21.3
2023-04-02T01:49:33.677Z,21.3
2023-04-02T01:50:35.525Z,21.3
2023-04-02T01:51:37.384Z,21.3
2023-04-02T01:52:39.295Z,21.3
2023-04-02T01:53:41.086Z,21.3
2023-04-02T01:54:42.915Z,21.3
2023-04-02T01:55:44.778Z,21.3
2023-04-02T01:56:46.692Z,21.3
2023-04-02T01:57:48.882Z,21.3
2023-04-02T01:58:50.666Z,21.3
2023-04-02T01:59:52.664Z,21.3
2023-04-02T02:00:54.392Z,21.3
2023-04-02T02:01:56.317Z,21.3
2023-04-02T02:02:58.509Z,21.3
2023-04-02T02:04:00.411Z,21.2
2023-04-02T02:05:02.235Z,21.2
2023-04-02T02:06:04.142Z,21.3
2023-04-02T02:07:06.045Z,21.2
2023-04-02T02:08:07.880Z,21.2
2023-04-02T02:09:09.736Z,21.2
2023-04-02T02:10:11.661Z,21.2
2023-04-02T02:11:13.598Z,21.3
2023-04-02T02:12:15.543Z,21.2
2023-04-02T02:13:17.476Z,21.2
2023-04-02T02:14:19.550Z,21.2
2023-04-02T02:15:21.465Z,21.2
2023-04-02T02:16:23.365Z,21.2
2023-04-02T02:17:25.416Z,21.2
2023-04-02T02:18:27.461Z,21.2
2023-04-02T02:19:29.368Z,21.2
2023-04-02T02:20:31.220Z,21.2
2023-04-02T02:21:33.076Z,21.2
2023-04-02T02:22:35.027Z,21.2
2023-04-02T02:23:36.890Z,21.2
2023-04-02T02:24:38.727Z,21.2
2023-04-02T02:25:40.669Z,21.2
2023-04-02T02:26:42.524Z,21.2
2023-04-02T02:27:44.473Z,21.1
2023-04-02T02:28:46.328Z,21.1
2023-04-02T02:29:48.175Z,21.1
2023-04-02T02:30:50.035Z,21.1
2023-04-02T02:31:51.973Z,21.1
2023-04-02T02:32:54.047Z,21.1
2023-04-02T02:33:56.189Z,21.1
2023-04-02T02:34:58.042Z,21.1
2023-04-02T02:35:59.861Z,21.1
2023-04-02T02:37:02.226Z,21.1
2023-04-02T02:38:04.088Z,21.1
2023-04-02T02:39:05.955Z,21.1
2023-04-02T02:40:07.805Z,21.1
2023-04-02T02:41:09.687Z,21.1
2023-04-02T02:42:11.405Z,21.1
2023-04-02T02:43:13.277Z,21.1
2023-04-02T02:44:15.182Z,21.1
2023-04-02T02:45:17.050Z,21.1
2023-04-02T02:46:18.823Z,21.1
2023-04-02T02:47:20.878Z,21.1
2023-04-02T02:48:22.770Z,21.1
2023-04-02T02:49:24.666Z,21.1
2023-04-02T02:50:26.574Z,21.1
2023-04-02T02:51:28.471Z,21.1
2023-04-02T02:52:30.205Z,21.1
2023-04-02T02:53:32.040Z,21.1
2023-04-02T02:54:33.980Z,21.1
2023-04-02T02:55:35.936Z,21.1
2023-04-02T02:56:39.346Z,21.1
2023-04-02T02:57:41.092Z,21.1
2023-04-02T02:58:43.084Z,21.1
2023-04-02T02:59:45.799Z,21.1
2023-04-02T03:00:47.665Z,21.1
2023-04-02T03:01:49.678Z,21.1
2023-04-02T03:02:51.814Z,21.1
2023-04-02T03:03:54.469Z,21.1
2023-04-02T03:04:57.217Z,21.1
2023-04-02T03:05:59.062Z,21.1
2023-04-02T03:07:01.004Z,21.1
2023-04-02T03:08:02.782Z,21
2023-04-02T03:09:04.629Z,21.1
2023-04-02T03:10:06.445Z,21.1
2023-04-02T03:11:08.324Z,21
2023-04-02T03:12:10.233Z,21
2023-04-02T03:13:12.223Z,21.1
2023-04-02T03:14:14.075Z,21.1
2023-04-02T03:15:15.916Z,21.1
2023-04-02T03:16:17.804Z,21.1
2023-04-02T03:17:19.994Z,21.1
2023-04-02T03:18:21.891Z,21.1
2023-04-02T03:19:23.741Z,21
2023-04-02T03:20:25.581Z,21
2023-04-02T03:21:27.437Z,21
2023-04-02T03:22:29.359Z,21
2023-04-02T03:23:31.239Z,21
2023-04-02T03:24:33.096Z,21
2023-04-02T03:25:35.096Z,21
2023-04-02T03:26:38.121Z,21
2023-04-02T03:27:40.051Z,21
2023-04-02T03:28:41.922Z,21
2023-04-02T03:29:43.821Z,21
2023-04-02T03:30:45.701Z,21
2023-04-02T03:31:47.678Z,21
2023-04-02T03:32:49.609Z,21
2023-04-02T03:33:51.417Z,21
2023-04-02T03:34:53.312Z,21
2023-04-02T03:35:55.194Z,21
2023-04-02T03:36:57.102Z,21
2023-04-02T03:37:59.030Z,21
2023-04-02T03:39:00.939Z,21
2023-04-02T03:40:02.709Z,21
2023-04-02T03:41:04.639Z,21
2023-04-02T03:42:06.488Z,21
2023-04-02T03:43:08.363Z,21
2023-04-02T03:44:10.188Z,21
2023-04-02T03:45:12.088Z,21
2023-04-02T03:46:13.995Z,21
2023-04-02T03:47:15.985Z,21
2023-04-02T03:48:17.891Z,21
2023-04-02T03:49:19.740Z,21
2023-04-02T03:50:21.634Z,21
2023-04-02T03:51:23.539Z,21
2023-04-02T03:52:25.400Z,21
2023-04-02T03:53:27.207Z,20.9
2023-04-02T03:54:29.088Z,20.9
2023-04-02T03:55:30.902Z,20.9
2023-04-02T03:56:32.735Z,20.9
2023-04-02T03:57:34.646Z,20.9
2023-04-02T03:58:36.503Z,20.9
2023-04-02T03:59:38.338Z,20.9
2023-04-02T04:00:40.307Z,20.9
2023-04-02T04:01:42.172Z,20.9
2023-04-02T04:02:44.328Z,20.9
2023-04-02T04:03:46.486Z,20.9
2023-04-02T04:04:48.723Z,20.9
2023-04-02T04:05:50.704Z,20.9
2023-04-02T04:06:52.640Z,20.9
2023-04-02T04:07:54.504Z,20.9
2023-04-02T04:08:56.299Z,20.9
2023-04-02T04:09:58.178Z,20.9
2023-04-02T04:11:00.006Z,20.9
2023-04-02T04:12:01.982Z,20.9
2023-04-02T04:13:03.956Z,20.9
2023-04-02T04:14:05.934Z,20.9
2023-04-02T04:15:07.829Z,20.9
2023-04-02T04:16:09.756Z,20.9
2023-04-02T04:17:11.732Z,20.9
2023-04-02T04:18:13.684Z,20.9
2023-04-02T04:19:15.593Z,20.9
2023-04-02T04:20:17.513Z,20.9
2023-04-02T04:21:19.333Z,20.8
2023-04-02T04:22:21.198Z,20.8
2023-04-02T04:23:23.050Z,20.8
2023-04-02T04:24:24.852Z,20.8
2023-04-02T04:25:26.747Z,20.8
2023-04-02T04:26:28.656Z,20.8
2023-04-02T04:27:30.539Z,20.8
2023-04-02T04:28:32.390Z,20.8
2023-04-02T04:29:34.237Z,20.8
2023-04-02T04:30:36.095Z,20.8
2023-04-02T04:31:38.044Z,20.8
2023-04-02T04:32:40.133Z,20.8
2023-04-02T04:33:42.048Z,20.8
2023-04-02T04:34:43.840Z,20.8
2023-04-02T04:35:45.689Z,20.8
2023-04-02T04:36:47.923Z,20.8
2023-04-02T04:37:49.768Z,20.8
2023-04-02T04:38:51.616Z,20.8
2023-04-02T04:39:53.356Z,20.8
2023-04-02T04:40:55.157Z,20.8
2023-04-02T04:41:57.134Z,20.8
2023-04-02T04:42:59.018Z,20.8
2023-04-02T04:44:00.970Z,20.8
2023-04-02T04:45:02.982Z,20.8
2023-04-02T04:46:04.792Z,20.8
2023-04-02T04:47:07.068Z,20.9
2023-04-02T04:48:09.057Z,20.9
2023-04-02T04:49:10.940Z,20.9
2023-04-02T04:50:12.790Z,20.9
2023-04-02T04:51:14.693Z,20.9
2023-04-02T04:52:16.582Z,20.9
2023-04-02T04:53:18.438Z,20.9
2023-04-02T04:54:20.312Z,20.9
2023-04-02T04:55:22.271Z,20.9
2023-04-02T04:56:24.083Z,21
2023-04-02T04:57:26.061Z,21
2023-04-02T04:58:28.100Z,21
2023-04-02T04:59:29.941Z,21
2023-04-02T05:00:31.790Z,21
2023-04-02T05:01:33.620Z,21
2023-04-02T05:02:35.928Z,21
2023-04-02T05:03:37.860Z,21
2023-04-02T05:04:39.754Z,21.1
2023-04-02T05:05:42.080Z,21.1
2023-04-02T05:06:43.926Z,21.1
2023-04-02T05:07:45.764Z,21.1
2023-04-02T05:08:47.616Z,21.1
2023-04-02T05:09:49.566Z,21.1
2023-04-02T05:10:51.441Z,21.1
2023-04-02T05:11:53.238Z,21.2
2023-04-02T05:12:55.161Z,21.3
2023-04-02T05:13:57.143Z,21.3
2023-04-02T05:14:59.017Z,21.3
2023-04-02T05:16:01.386Z,21.4
2023-04-02T05:17:03.527Z,21.4
2023-04-02T05:18:05.462Z,21.5
2023-04-02T05:19:07.554Z,21.5
2023-04-02T05:20:09.436Z,21.4
2023-04-02T05:21:11.253Z,21.4
2023-04-02T05:22:13.018Z,21.3
2023-04-02T05:23:14.845Z,21.3
2023-04-02T05:24:16.592Z,21.1
2023-04-02T05:25:18.628Z,21.1
2023-04-02T05:26:20.512Z,21.1
2023-04-02T05:27:22.354Z,21
2023-04-02T05:28:24.202Z,21.1
2023-04-02T05:29:26.053Z,21.1
2023-04-02T05:30:27.950Z,21.1
2023-04-02T05:31:29.871Z,21.1
2023-04-02T05:32:31.873Z,21.1
2023-04-02T05:33:33.978Z,21.1
2023-04-02T05:34:35.814Z,21.1
2023-04-02T05:35:37.941Z,21.2
2023-04-02T05:36:40.610Z,21.2
2023-04-02T05:37:42.387Z,21.2
2023-04-02T05:38:44.147Z,21.2
2023-04-02T05:39:45.992Z,21.2
2023-04-02T05:40:47.785Z,21.3
2023-04-02T05:41:49.686Z,21.3
2023-04-02T05:42:51.538Z,21.3
2023-04-02T05:43:53.362Z,21.4
2023-04-02T05:44:55.256Z,21.4
2023-04-02T05:45:57.108Z,21.4
2023-04-02T05:46:58.885Z,21.4
2023-04-02T05:48:00.924Z,21.4
2023-04-02T05:49:03.665Z,21.4
2023-04-02T05:50:05.419Z,21.4
2023-04-02T05:51:07.356Z,21.4
2023-04-02T05:52:09.282Z,21.4
2023-04-02T05:53:11.241Z,21.5
2023-04-02T05:54:13.144Z,21.5
2023-04-02T05:55:15.098Z,21.5
2023-04-02T05:56:16.823Z,21.6
2023-04-02T05:57:19.366Z,21.6
2023-04-02T05:59:38.993Z,21.6
2023-04-02T06:00:40.900Z,21.7
2023-04-02T06:01:42.759Z,21.7
2023-04-02T06:02:44.725Z,21.8
2023-04-02T06:03:46.783Z,21.8
2023-04-02T06:04:49.113Z,21.8
2023-04-02T06:05:51.026Z,21.9
2023-04-02T06:06:52.798Z,21.9
2023-04-02T06:07:54.674Z,21.9
2023-04-02T06:08:56.519Z,22
2023-04-02T06:09:58.317Z,22
2023-04-02T06:11:00.222Z,22
2023-04-02T06:12:02.072Z,22.1
2023-04-02T06:13:03.942Z,22.1
2023-04-02T06:14:05.874Z,22.1
2023-04-02T06:15:07.807Z,22.1
2023-04-02T06:16:09.596Z,22.2
2023-04-02T06:17:11.436Z,22.2
2023-04-02T06:18:13.280Z,22.2
2023-04-02T06:19:15.439Z,22.3
2023-04-02T06:20:17.361Z,22.3
2023-04-02T06:21:19.237Z,22.3
2023-04-02T06:22:21.123Z,22.3
2023-04-02T06:23:22.840Z,22.3
2023-04-02T06:24:24.692Z,22.4
2023-04-02T06:25:26.514Z,22.4
2023-04-02T06:26:28.385Z,22.4
2023-04-02T06:27:30.224Z,22.5
2023-04-02T06:28:31.985Z,22.5
2023-04-02T06:29:33.878Z,22.5
2023-04-02T06:30:35.824Z,22.5
2023-04-02T06:31:37.835Z,22.5
2023-04-02T06:32:39.779Z,22.6
2023-04-02T06:33:41.841Z,22.6
2023-04-02T06:34:43.709Z,22.6
2023-04-02T06:35:45.756Z,22.6
2023-04-02T06:36:47.873Z,22.7
2023-04-02T06:37:49.753Z,22.7
2023-04-02T06:38:51.609Z,22.7
2023-04-02T06:39:53.386Z,22.8
2023-04-02T06:40:56.362Z,22.8
2023-04-02T06:42:00.635Z,22.8
2023-04-02T06:43:02.490Z,22.8
2023-04-02T06:44:04.333Z,22.9
2023-04-02T06:45:06.185Z,22.9
2023-04-02T06:46:07.951Z,22.9
2023-04-02T06:47:10.039Z,22.9
2023-04-02T06:48:12.041Z,22.9
2023-04-02T06:49:13.901Z,22.9
2023-04-02T06:50:15.657Z,22.9
2023-04-02T06:51:17.539Z,23
2023-04-02T06:52:19.517Z,23
2023-04-02T06:53:21.468Z,23
2023-04-02T06:54:23.364Z,23
2023-04-02T06:55:25.234Z,23
2023-04-02T06:56:27.258Z,23
2023-04-02T06:57:29.131Z,23
2023-04-02T06:58:31.447Z,23
2023-04-02T06:59:33.540Z,23
2023-04-02T07:00:35.373Z,23.1
2023-04-02T07:01:37.245Z,23.1
2023-04-02T07:02:39.319Z,23.1
2023-04-02T07:03:41.503Z,23.1
2023-04-02T07:04:43.441Z,23.1
2023-04-02T07:05:45.453Z,23.2
2023-04-02T07:06:47.314Z,23.2
2023-04-02T07:07:49.150Z,23.2
2023-04-02T07:08:51.058Z,23.2
2023-04-02T07:09:53.035Z,23.2
2023-04-02T07:10:54.884Z,23.2
2023-04-02T07:11:56.741Z,23.2
2023-04-02T07:12:58.489Z,23.2
2023-04-02T07:14:00.309Z,23.3
2023-04-02T07:15:02.154Z,23.3
2023-04-02T07:16:04.052Z,23.3
2023-04-02T07:17:06.737Z,23.3
2023-04-02T07:18:08.775Z,23.4
2023-04-02T07:19:10.933Z,23.4
2023-04-02T07:20:12.729Z,23.4
2023-04-02T07:21:14.424Z,23.3
2023-04-02T07:22:16.390Z,23.3
2023-04-02T07:23:18.222Z,23.3
2023-04-02T07:24:20.018Z,23.4
2023-04-02T07:25:21.986Z,23.4
2023-04-02T07:26:23.772Z,23.4
2023-04-02T07:27:25.623Z,23.4
2023-04-02T07:28:27.466Z,23.4
2023-04-02T07:29:29.319Z,23.4
2023-04-02T07:30:31.236Z,23.4
2023-04-02T07:31:33.117Z,23.4
2023-04-02T07:32:35.241Z,23.4
2023-04-02T07:33:37.129Z,23.4
2023-04-02T07:34:38.882Z,23.4
2023-04-02T07:35:40.829Z,23.4
2023-04-02T07:36:42.677Z,23.4
2023-04-02T07:37:44.659Z,23.4
2023-04-02T07:38:46.627Z,23.4
2023-04-02T07:39:48.607Z,23.5
2023-04-02T07:40:50.386Z,23.5
2023-04-02T07:41:52.238Z,23.5
2023-04-02T07:42:54.088Z,23.5
2023-04-02T07:43:55.936Z,23.4
2023-04-02T07:44:57.809Z,23.5
2023-04-02T07:45:59.698Z,23.5
2023-04-02T07:47:01.704Z,23.5
2023-04-02T07:48:03.964Z,23.5
2023-04-02T07:49:06.209Z,23.4
2023-04-02T07:50:08.068Z,23.5
2023-04-02T07:51:09.904Z,23.5
2023-04-02T07:52:11.793Z,23.5
2023-04-02T07:53:13.669Z,23.5
2023-04-02T07:54:15.556Z,23.5
2023-04-02T07:55:17.263Z,23.5
2023-04-02T07:56:19.216Z,23.5
2023-04-02T07:57:21.138Z,23.5
2023-04-02T07:58:23.382Z,23.5
2023-04-02T07:59:25.228Z,23.5
2023-04-02T08:00:26.926Z,23.5
2023-04-02T08:01:28.806Z,23.5
2023-04-02T08:02:30.710Z,23.5
2023-04-02T08:03:33.265Z,23.5
2023-04-02T08:04:35.392Z,23.5
2023-04-02T08:05:37.412Z,23.5
2023-04-02T08:06:39.903Z,23.5
2023-04-02T08:07:41.836Z,23.5
2023-04-02T08:08:43.703Z,23.5
2023-04-02T08:09:45.786Z,23.5
2023-04-02T08:10:47.627Z,23.5
2023-04-02T08:11:49.927Z,23.5
2023-04-02T08:12:53.648Z,23.4
2023-04-02T08:13:55.541Z,23.4
2023-04-02T08:14:57.292Z,23.4
2023-04-02T08:15:59.195Z,23.4
2023-04-02T08:17:01.105Z,23.4
2023-04-02T08:18:03.186Z,23.4
2023-04-02T08:19:05.302Z,23.4
2023-04-02T08:20:07.141Z,23.4
2023-04-02T08:21:09.027Z,23.4
2023-04-02T08:22:10.934Z,23.3
2023-04-02T08:23:12.861Z,23.3
2023-04-02T08:24:14.872Z,23.3
2023-04-02T08:25:16.690Z,23.3
2023-04-02T08:26:18.541Z,23.3
2023-04-02T08:27:20.574Z,23.3
2023-04-02T08:28:22.545Z,23.3
2023-04-02T08:29:24.467Z,23.3
2023-04-02T08:30:26.566Z,23.3
2023-04-02T08:31:28.421Z,23.2
2023-04-02T08:32:30.477Z,23.2
2023-04-02T08:33:32.311Z,23.2
2023-04-02T08:34:34.247Z,23.2
2023-04-02T08:35:36.507Z,23.2
2023-04-02T08:36:39.776Z,23.2
2023-04-02T08:37:41.663Z,23.2
2023-04-02T08:38:43.505Z,23.2
2023-04-02T08:39:45.436Z,23.2
2023-04-02T08:40:47.339Z,23.2
2023-04-02T08:41:49.265Z,23.2
2023-04-02T08:42:51.111Z,23.2
2023-04-02T08:43:52.969Z,23.1
2023-04-02T08:44:54.860Z,23.1
2023-04-02T08:45:56.784Z,23.1
2023-04-02T08:46:58.577Z,23.1
2023-04-02T08:48:00.660Z,23.1
2023-04-02T08:49:02.734Z,23.1
2023-04-02T08:50:04.516Z,23.1
2023-04-02T08:51:06.421Z,23.1
2023-04-02T08:52:08.272Z,23.1
2023-04-02T08:53:10.128Z,23.1
2023-04-02T08:54:12.120Z,23.1
2023-04-02T08:55:14.063Z,23.1
2023-04-02T08:56:15.977Z,23.1
2023-04-02T08:57:17.858Z,23.1
2023-04-02T08:58:19.962Z,23.1
2023-04-02T08:59:21.860Z,23.1
2023-04-02T09:00:23.738Z,23.1
2023-04-02T09:01:25.959Z,23.1
2023-04-02T09:02:28.169Z,23.1
2023-04-02T09:03:30.510Z,23.1
2023-04-02T09:04:32.476Z,23
2023-04-02T09:05:34.798Z,23
2023-04-02T09:06:37.349Z,23
2023-04-02T09:07:39.206Z,23
2023-04-02T09:08:41.096Z,23
2023-04-02T09:09:42.996Z,23
2023-04-02T09:10:44.950Z,23
2023-04-02T09:11:47.105Z,23
2023-04-02T09:12:48.958Z,23
2023-04-02T09:13:50.812Z,23
2023-04-02T09:14:52.734Z,23
2023-04-02T09:15:54.530Z,23
2023-04-02T09:16:56.534Z,23
2023-04-02T09:17:59.588Z,23
2023-04-02T09:19:01.902Z,23
2023-04-02T09:20:03.760Z,23
2023-04-02T09:21:05.694Z,23.1
2023-04-02T09:22:07.467Z,23.1
2023-04-02T09:23:09.412Z,23.1
2023-04-02T09:24:11.223Z,23.1
2023-04-02T09:25:13.012Z,23.1
2023-04-02T09:26:14.927Z,23.1
2023-04-02T09:27:16.858Z,23.1
2023-04-02T09:28:18.845Z,23.1
2023-04-02T09:29:20.767Z,23.1
2023-04-02T09:30:22.674Z,23.2
2023-04-02T09:31:24.427Z,23.1
2023-04-02T09:32:26.580Z,23.1
2023-04-02T09:33:28.417Z,23.1
2023-04-02T09:34:30.267Z,23.1
2023-04-02T09:35:32.123Z,23.1
2023-04-02T09:36:34.080Z,23.2
2023-04-02T09:37:36.261Z,23.2
2023-04-02T09:38:38.138Z,23.2
2023-04-02T09:39:40.029Z,23.2
2023-04-02T09:40:41.949Z,23.2
2023-04-02T09:41:46.359Z,23.2
2023-04-02T09:43:07.339Z,23.2
2023-04-02T09:44:09.242Z,23.3
2023-04-02T09:45:11.172Z,23.3
2023-04-02T09:46:13.185Z,23.3
2023-04-02T09:47:15.319Z,23.3
2023-04-02T09:48:17.165Z,23.4
2023-04-02T09:49:19.003Z,23.4
2023-04-02T09:50:20.905Z,23.4
2023-04-02T09:51:22.822Z,23.4
2023-04-02T09:52:24.717Z,23.4
2023-04-02T09:53:26.508Z,23.4
2023-04-02T09:54:28.362Z,23.4
2023-04-02T09:55:30.108Z,23.4
2023-04-02T09:56:32.046Z,23.5
2023-04-02T09:57:33.965Z,23.5
2023-04-02T09:58:35.986Z,23.5
2023-04-02T09:59:37.809Z,23.5
2023-04-02T10:00:41.556Z,23.5
2023-04-02T10:01:44.451Z,23.5
2023-04-02T10:02:46.464Z,23.6
2023-04-02T10:03:48.394Z,23.6
2023-04-02T10:04:50.535Z,23.6
2023-04-02T10:05:52.603Z,23.6
2023-04-02T10:06:54.514Z,23.6
2023-04-02T10:07:56.481Z,23.6
2023-04-02T10:08:58.259Z,23.6
2023-04-02T10:10:00.065Z,23.6
2023-04-02T10:11:01.958Z,23.5
2023-04-02T10:12:03.870Z,23.6
2023-04-02T10:13:05.777Z,23.5
2023-04-02T10:14:07.596Z,23.5
2023-04-02T10:15:09.423Z,23.5
2023-04-02T10:16:11.270Z,23.5
2023-04-02T10:17:13.615Z,23.5
2023-04-02T10:18:15.924Z,23.5
2023-04-02T10:19:17.666Z,23.5
2023-04-02T10:20:19.422Z,23.5
2023-04-02T10:21:21.273Z,23.5
2023-04-02T10:22:23.100Z,23.5
2023-04-02T10:23:24.878Z,23.5
2023-04-02T10:24:26.750Z,23.5
2023-04-02T10:25:28.663Z,23.5
2023-04-02T10:26:30.522Z,23.5
2023-04-02T10:27:32.410Z,23.5
2023-04-02T10:28:34.348Z,23.5
2023-04-02T10:29:36.170Z,23.6
2023-04-02T10:30:38.016Z,23.6
2023-04-02T10:31:40.175Z,23.6
2023-04-02T10:32:42.105Z,23.6
2023-04-02T10:33:44.191Z,23.6
2023-04-02T10:34:46.042Z,23.6
2023-04-02T10:35:48.022Z,23.6
2023-04-02T10:36:50.151Z,23.6
2023-04-02T10:37:51.997Z,23.7
2023-04-02T10:38:53.926Z,23.7
2023-04-02T10:39:55.796Z,23.7
2023-04-02T10:40:57.655Z,23.7
2023-04-02T10:41:59.573Z,23.7
2023-04-02T10:43:01.448Z,23.7
2023-04-02T10:44:12.991Z,23.8
2023-04-02T10:45:22.460Z,23.8
2023-04-02T10:46:25.442Z,23.8
2023-04-02T10:47:27.712Z,23.8
2023-04-02T10:48:29.702Z,23.8
2023-04-02T10:49:31.641Z,23.8
2023-04-02T10:50:33.609Z,23.8
2023-04-02T10:51:35.514Z,23.8
2023-04-02T10:52:37.351Z,23.8
2023-04-02T10:53:39.174Z,23.8
2023-04-02T10:54:41.060Z,23.8
2023-04-02T10:55:42.974Z,23.9
2023-04-02T10:56:50.899Z,23.9
2023-04-02T10:57:53.274Z,23.9
2023-04-02T10:58:57.310Z,23.9
2023-04-02T10:59:59.459Z,23.9
2023-04-02T11:01:01.478Z,23.9
2023-04-02T11:02:03.343Z,23.9
2023-04-02T11:03:05.530Z,23.9
2023-04-02T11:04:07.843Z,23.9
2023-04-02T11:05:09.754Z,23.9
2023-04-02T11:06:12.346Z,23.9
2023-04-02T11:07:14.956Z,23.9
2023-04-02T11:08:17.024Z,23.9
2023-04-02T11:09:18.934Z,23.9
2023-04-02T11:10:20.785Z,23.9
2023-04-02T11:11:23.152Z,23.9
2023-04-02T11:12:25.003Z,23.9
2023-04-02T11:13:26.854Z,23.9
2023-04-02T11:14:28.744Z,23.9
2023-04-02T11:15:30.791Z,23.9
2023-04-02T11:16:32.819Z,23.9
2023-04-02T11:17:38.279Z,23.9
2023-04-02T11:18:40.300Z,23.9
2023-04-02T11:19:42.206Z,23.9
2023-04-02T11:20:44.025Z,24
2023-04-02T11:21:57.726Z,24
2023-04-02T11:23:07.972Z,24
2023-04-02T11:24:09.826Z,24
2023-04-02T11:25:11.939Z,24
2023-04-02T11:26:13.632Z,24
2023-04-02T11:27:15.483Z,24
2023-04-02T11:28:17.328Z,23.9
2023-04-02T11:29:19.066Z,23.9
2023-04-02T11:30:21.014Z,23.9
2023-04-02T11:31:22.958Z,23.9
2023-04-02T11:32:24.947Z,23.9
2023-04-02T11:33:36.338Z,23.9
2023-04-02T11:34:53.781Z,23.9
2023-04-02T11:36:09.204Z,23.9
2023-04-02T11:37:11.027Z,23.9
2023-04-02T11:38:12.768Z,23.9
2023-04-02T11:39:17.239Z,23.9
2023-04-02T11:40:19.631Z,23.9
2023-04-02T11:41:21.564Z,24
2023-04-02T11:42:23.495Z,23.9
2023-04-02T11:43:25.204Z,23.9
2023-04-02T11:44:26.967Z,23.9
2023-04-02T11:45:28.713Z,23.9
2023-04-02T11:46:31.585Z,24
2023-04-02T11:47:33.583Z,23.9
2023-04-02T11:48:35.789Z,23.9
2023-04-02T11:49:38.265Z,24
2023-04-02T11:50:40.448Z,23.9
2023-04-02T11:51:42.975Z,24
2023-04-02T11:52:44.968Z,24
2023-04-02T11:53:46.782Z,24
2023-04-02T11:54:48.637Z,23.9
2023-04-02T11:55:50.474Z,23.9
2023-04-02T11:56:52.416Z,23.9
2023-04-02T11:57:54.378Z,23.9
2023-04-02T11:58:56.235Z,23.9
2023-04-02T11:59:58.019Z,23.9
2023-04-02T12:01:00.001Z,23.8
2023-04-02T12:02:01.928Z,23.8
2023-04-02T12:03:03.977Z,23.7
2023-04-02T12:04:06.101Z,23.7
2023-04-02T12:05:08.029Z,23.7
2023-04-02T12:06:09.968Z,23.7
2023-04-02T12:07:11.853Z,23.7
2023-04-02T12:08:13.707Z,23.7
2023-04-02T12:09:15.551Z,23.7
2023-04-02T12:10:17.552Z,23.7
2023-04-02T12:11:19.369Z,23.7
2023-04-02T12:12:21.241Z,23.7
2023-04-02T12:13:23.092Z,23.7
2023-04-02T12:14:25.070Z,23.7
2023-04-02T12:15:26.948Z,23.7
2023-04-02T12:16:28.753Z,23.7
2023-04-02T12:17:31.071Z,23.6
2023-04-02T12:18:33.126Z,23.7
2023-04-02T12:19:34.973Z,23.7
2023-04-02T12:20:37.056Z,23.7
2023-04-02T12:21:39.666Z,23.7
2023-04-02T12:22:41.605Z,23.7
2023-04-02T12:23:43.491Z,23.7
2023-04-02T12:24:45.347Z,23.7
2023-04-02T12:25:47.198Z,23.7
2023-04-02T12:26:48.986Z,23.7
2023-04-02T12:27:50.947Z,23.8
2023-04-02T12:28:52.908Z,23.8
2023-04-02T12:29:54.742Z,23.8
2023-04-02T12:30:56.666Z,23.8
2023-04-02T12:31:58.769Z,23.9
2023-04-02T12:33:00.800Z,23.9
2023-04-02T12:34:02.808Z,23.8
2023-04-02T12:35:04.648Z,23.8
2023-04-02T12:36:06.527Z,23.8
2023-04-02T12:37:08.514Z,23.8
2023-04-02T12:38:10.415Z,23.8
2023-04-02T12:39:12.247Z,23.8
2023-04-02T12:40:14.161Z,23.8
2023-04-02T12:41:16.070Z,23.8
2023-04-02T12:42:17.923Z,23.8
2023-04-02T12:43:19.771Z,23.8
2023-04-02T12:44:21.655Z,23.8
2023-04-02T12:45:23.511Z,23.8
2023-04-02T12:46:25.447Z,23.8
2023-04-02T12:47:27.690Z,23.8
2023-04-02T12:48:29.862Z,23.8
2023-04-02T12:49:31.736Z,23.8
2023-04-02T12:50:34.105Z,23.8
2023-04-02T12:51:37.442Z,23.8
2023-04-02T12:52:39.352Z,23.8
2023-04-02T12:53:41.296Z,23.8
2023-04-02T12:54:43.159Z,23.8
2023-04-02T12:55:45.047Z,23.8
2023-04-02T12:56:47.008Z,23.8
2023-04-02T12:57:49.145Z,23.9
2023-04-02T12:58:50.903Z,23.9
2023-04-02T12:59:52.831Z,23.9
2023-04-02T13:00:54.776Z,23.9
2023-04-02T13:01:56.690Z,23.9
2023-04-02T13:02:59.083Z,23.9
2023-04-02T13:04:01.233Z,23.8
2023-04-02T13:05:03.383Z,23.8
2023-04-02T13:06:05.287Z,23.8
2023-04-02T13:07:07.144Z,23.8
2023-04-02T13:08:08.986Z,23.8
2023-04-02T13:09:10.834Z,23.8
2023-04-02T13:10:12.687Z,23.8
2023-04-02T13:11:14.658Z,23.8
2023-04-02T13:12:16.580Z,23.7
2023-04-02T13:13:18.440Z,23.7
2023-04-02T13:14:20.298Z,23.8
2023-04-02T13:15:22.158Z,23.8
2023-04-02T13:16:24.073Z,23.7
2023-04-02T13:17:26.283Z,23.6
2023-04-02T13:18:28.218Z,23.6
2023-04-02T13:19:30.097Z,23.6
2023-04-02T13:20:32.113Z,23.6
2023-04-02T13:21:34.140Z,23.6
2023-04-02T13:22:36.087Z,23.6
2023-04-02T13:23:37.966Z,23.6
2023-04-02T13:24:39.817Z,23.5
2023-04-02T13:25:41.666Z,23.6
2023-04-02T13:26:43.605Z,23.6
2023-04-02T13:27:45.482Z,23.7
2023-04-02T13:28:47.312Z,23.7
2023-04-02T13:29:49.193Z,23.7
2023-04-02T13:30:51.019Z,23.7
2023-04-02T13:31:53.175Z,23.7
2023-04-02T13:32:55.552Z,23.6
2023-04-02T13:33:57.720Z,23.6
2023-04-02T13:34:59.574Z,23.6
2023-04-02T13:36:01.470Z,23.6
2023-04-02T13:37:03.492Z,23.6
2023-04-02T13:38:05.404Z,23.7
2023-04-02T13:39:07.258Z,23.7
2023-04-02T13:40:09.321Z,23.7
2023-04-02T13:41:11.431Z,23.7
2023-04-02T13:42:13.217Z,23.7
2023-04-02T13:43:15.097Z,23.7
2023-04-02T13:44:17.014Z,23.7
2023-04-02T13:45:18.855Z,23.7
2023-04-02T13:46:20.752Z,23.6
2023-04-02T13:47:22.724Z,23.6
2023-04-02T13:48:24.545Z,23.7
2023-04-02T13:49:26.275Z,23.7
2023-04-02T13:50:28.150Z,23.6
2023-04-02T13:51:30.144Z,23.6
2023-04-02T13:52:32.007Z,23.6
2023-04-02T13:53:33.762Z,23.6